Big Bear Station Historical Data
Daily Summary for July 16, 2019 Units:  English    Metric   Both
Next Day »
Daily Weekly Monthly Yearly Custom
  High: Low: Average:
Temperature: 83.8 °F 48 °F 64.1 °F
Dew Point: 51 °F 26.5 °F 40.2 °F
Humidity: 87% 19% 47%
Wind Speed: 6.3mph 0mph 0.2mph
Wind Gust: -999mph - -
Wind- - WSW
Pressure: 23.59 in 23.53 in -
Precipitation: 0 in    
Historical Graphs
 
 
Tabular Data for July 16, 2019
Time Temperature Dew Point Pressure Wind Wind Speed Wind Gust Humidity Rainfall Rate (Hourly)
00:03 53.4 °F 31.5 °F 23.59 in Calm   -999 mph 43% 0.00 in
00:18 53.1 °F 30.6 °F 23.58 in Calm   -999 mph 42% 0.00 in
00:34 52.5 °F 27.6 °F 23.58 in Calm   -999 mph 38% 0.00 in
00:49 52 °F 26.5 °F 23.58 in Calm   -999 mph 37% 0.00 in
01:04 51.6 °F 28.7 °F 23.58 in Calm   -999 mph 41% 0.00 in
01:19 51.3 °F 31.2 °F 23.57 in Calm   -999 mph 46% 0.00 in
01:34 50.9 °F 32.9 °F 23.57 in Calm   -999 mph 50% 0.00 in
01:50 50.7 °F 33.7 °F 23.56 in Calm   -999 mph 52% 0.00 in
02:05 50.4 °F 34.8 °F 23.56 in Calm   -999 mph 55% 0.00 in
02:20 50.2 °F 36.4 °F 23.56 in Calm   -999 mph 59% 0.00 in
02:35 49.8 °F 37.7 °F 23.55 in Calm   -999 mph 63% 0.00 in
02:50 49.6 °F 38.3 °F 23.55 in Calm   -999 mph 65% 0.00 in
03:06 49.5 °F 37.8 °F 23.55 in Calm   -999 mph 64% 0.00 in
03:21 49.3 °F 39.6 °F 23.54 in Calm   -999 mph 69% 0.00 in
03:36 49.3 °F 39.2 °F 23.55 in Calm   -999 mph 68% 0.00 in
03:51 49.1 °F 40.5 °F 23.54 in Calm   -999 mph 72% 0.00 in
04:06 48.9 °F 41.3 °F 23.54 in Calm   -999 mph 75% 0.00 in
04:22 48.9 °F 42 °F 23.54 in Calm   -999 mph 77% 0.00 in
04:37 48.6 °F 42.1 °F 23.54 in Calm   -999 mph 78% 0.00 in
04:52 48.7 °F 43.1 °F 23.54 in Calm   -999 mph 81% 0.00 in
05:07 48.4 °F 42.8 °F 23.54 in Calm   -999 mph 81% 0.00 in
05:23 48.2 °F 43.3 °F 23.54 in Calm   -999 mph 83% 0.00 in
05:38 48 °F 42.1 °F 23.54 in Calm   -999 mph 80% 0.00 in
05:53 48 °F 41.5 °F 23.54 in Calm   -999 mph 78% 0.00 in
06:08 48.2 °F 40.6 °F 23.54 in Calm   -999 mph 75% 0.00 in
06:23 48.2 °F 43.6 °F 23.55 in Calm   -999 mph 84% 0.00 in
06:39 48.7 °F 45 °F 23.54 in Calm   -999 mph 87% 0.00 in
06:54 48.7 °F 45 °F 23.55 in Calm   -999 mph 87% 0.00 in
07:09 49.8 °F 46.1 °F 23.55 in Calm   -999 mph 87% 0.00 in
07:24 49.8 °F 45.5 °F 23.54 in Calm   -999 mph 85% 0.00 in
07:39 50.9 °F 46.2 °F 23.55 in Calm   -999 mph 84% 0.00 in
07:55 52.7 °F 47 °F 23.55 in Calm   -999 mph 81% 0.00 in
08:10 55.6 °F 44.4 °F 23.55 in Calm   -999 mph 66% 0.00 in
08:25 58.1 °F 32 °F 23.55 in Calm   -999 mph 37% 0.00 in
08:40 61.5 °F 31.4 °F 23.55 in Calm   -999 mph 32% 0.00 in
08:55 63.9 °F 32.7 °F 23.56 in Calm   -999 mph 31% 0.00 in
09:11 65.7 °F 32.6 °F 23.56 in Calm   -999 mph 29% 0.00 in
09:26 67.6 °F 34.2 °F 23.56 in Calm   -999 mph 29% 0.00 in
09:41 69.1 °F 33.7 °F 23.56 in Calm   -999 mph 27% 0.00 in
09:56 70.5 °F 34 °F 23.56 in Calm   -999 mph 26% 0.00 in
10:11 72 °F 35.2 °F 23.56 in Calm   -999 mph 26% 0.00 in
10:27 72.3 °F 34.5 °F 23.56 in Calm   -999 mph 25% 0.00 in
10:42 73.2 °F 32.1 °F 23.56 in Calm   -999 mph 22% 0.00 in
10:57 73.8 °F 33.7 °F 23.56 in Calm   -999 mph 23% 0.00 in
11:12 74.8 °F 36.6 °F 23.56 in Calm   -999 mph 25% 0.00 in
11:28 75.9 °F 33.2 °F 23.56 in Calm   -999 mph 21% 0.00 in
11:43 76.6 °F 31.3 °F 23.56 in NW 6.3 mph -999 mph 19% 0.00 in
11:58 78.4 °F 35.2 °F 23.57 in Calm   -999 mph 21% 0.00 in
12:13 79.3 °F 34.8 °F 23.57 in NNW 4.7 mph -999 mph 20% 0.00 in
12:28 80.6 °F 38.2 °F 23.57 in Calm   -999 mph 22% 0.00 in
12:44 80.1 °F 36.6 °F 23.57 in NNW 3.7 mph -999 mph 21% 0.00 in
12:59 81.1 °F 37.5 °F 23.57 in Calm   -999 mph 21% 0.00 in
13:14 81.3 °F 38.8 °F 23.57 in NNW 3.7 mph -999 mph 22% 0.00 in
13:29 81.5 °F 42.3 °F 23.57 in Calm   -999 mph 25% 0.00 in
13:44 82.4 °F 40.9 °F 23.57 in Calm   -999 mph 23% 0.00 in
14:00 83.7 °F 43.1 °F 23.57 in Calm   -999 mph 24% 0.00 in
14:15 82.6 °F 37.5 °F 23.56 in NW 2.2 mph -999 mph 20% 0.00 in
14:30 81.9 °F 39.3 °F 23.56 in Calm   -999 mph 22% 0.00 in
14:45 81.7 °F 38 °F 23.56 in Calm   -999 mph 21% 0.00 in
15:00 80.6 °F 37.1 °F 23.56 in Calm   -999 mph 21% 0.00 in
15:16 82 °F 40.6 °F 23.56 in ENE 1.1 mph -999 mph 23% 0.00 in
15:31 82 °F 41.7 °F 23.56 in NNE 1.1 mph -999 mph 24% 0.00 in
15:46 81.5 °F 42.3 °F 23.56 in Calm   -999 mph 25% 0.00 in
16:01 80.2 °F 42.2 °F 23.55 in Calm   -999 mph 26% 0.00 in
16:16 79.7 °F 37.5 °F 23.55 in Calm   -999 mph 22% 0.00 in
16:32 79.9 °F 46.6 °F 23.55 in Calm   -999 mph 31% 0.00 in
16:47 79.9 °F 47.4 °F 23.54 in Calm   -999 mph 32% 0.00 in
17:02 82.2 °F 48.6 °F 23.54 in Calm   -999 mph 31% 0.00 in
17:17 83.8 °F 50 °F 23.54 in Calm   -999 mph 31% 0.00 in
17:32 82.2 °F 49.4 °F 23.54 in Calm   -999 mph 32% 0.00 in
17:48 80.4 °F 49.5 °F 23.54 in Calm   -999 mph 34% 0.00 in
18:03 79.7 °F 48.9 °F 23.54 in Calm   -999 mph 34% 0.00 in
18:18 80.4 °F 48.7 °F 23.54 in Calm   -999 mph 33% 0.00 in
18:33 78.3 °F 47.6 °F 23.54 in Calm   -999 mph 34% 0.00 in
18:49 76.8 °F 45.5 °F 23.54 in Calm   -999 mph 33% 0.00 in
19:04 76.8 °F 49.3 °F 23.54 in Calm   -999 mph 38% 0.00 in
19:19 75 °F 51 °F 23.54 in Calm   -999 mph 43% 0.00 in
19:34 69.6 °F 49.6 °F 23.53 in Calm   -999 mph 49% 0.00 in
19:49 66.4 °F 49.3 °F 23.54 in Calm   -999 mph 54% 0.00 in
20:05 64.8 °F 48.7 °F 23.54 in Calm   -999 mph 56% 0.00 in
20:20 63.3 °F 48.3 °F 23.53 in Calm   -999 mph 58% 0.00 in
20:35 62.1 °F 47.6 °F 23.54 in Calm   -999 mph 59% 0.00 in
20:50 60.6 °F 46.6 °F 23.54 in Calm   -999 mph 60% 0.00 in
21:05 59.5 °F 46 °F 23.54 in Calm   -999 mph 61% 0.00 in
21:21 58.6 °F 45.6 °F 23.54 in Calm   -999 mph 62% 0.00 in
21:36 57.7 °F 45.2 °F 23.54 in Calm   -999 mph 63% 0.00 in
21:51 57 °F 44.1 °F 23.55 in Calm   -999 mph 62% 0.00 in
22:06 56.5 °F 44.5 °F 23.55 in Calm   -999 mph 64% 0.00 in
22:21 55.4 °F 44.2 °F 23.55 in Calm   -999 mph 66% 0.00 in
22:37 54.5 °F 43.8 °F 23.55 in Calm   -999 mph 67% 0.00 in
22:52 53.6 °F 42.9 °F 23.55 in Calm   -999 mph 67% 0.00 in
23:07 53.1 °F 36.9 °F 23.55 in Calm   -999 mph 54% 0.00 in
23:22 52.5 °F 32.3 °F 23.55 in Calm   -999 mph 46% 0.00 in
23:37 52 °F 31.3 °F 23.55 in Calm   -999 mph 45% 0.00 in
23:53 51.6 °F 28.1 °F 23.55 in Calm   -999 mph 40% 0.00 in
Big Bear CA Weather